sensor_id;sensor_type;location;lat;lon;timestamp;temperature;humidity
7576;DHT22;3829;50.798;4.358;2024-02-15T00:01:10;13.20;99.90
7576;DHT22;3829;50.798;4.358;2024-02-15T00:03:36;13.30;99.90
7576;DHT22;3829;50.798;4.358;2024-02-15T00:06:02;13.30;99.90
7576;DHT22;3829;50.798;4.358;2024-02-15T00:08:29;13.40;99.90
7576;DHT22;3829;50.798;4.358;2024-02-15T00:10:55;13.30;99.90
7576;DHT22;3829;50.798;4.358;2024-02-15T00:13:21;13.30;99.90
7576;DHT22;3829;50.798;4.358;2024-02-15T00:15:48;13.30;99.90
7576;DHT22;3829;50.798;4.358;2024-02-15T00:18:14;13.30;99.90
7576;DHT22;3829;50.798;4.358;2024-02-15T00:20:40;13.40;99.90
7576;DHT22;3829;50.798;4.358;2024-02-15T00:23:06;13.40;99.90
7576;DHT22;3829;50.798;4.358;2024-02-15T00:25:33;13.40;99.90
7576;DHT22;3829;50.798;4.358;2024-02-15T00:27:58;13.40;99.90
7576;DHT22;3829;50.798;4.358;2024-02-15T00:30:28;13.40;99.90
7576;DHT22;3829;50.798;4.358;2024-02-15T00:32:53;13.50;99.90
7576;DHT22;3829;50.798;4.358;2024-02-15T00:35:19;13.50;99.90
7576;DHT22;3829;50.798;4.358;2024-02-15T00:37:45;13.50;99.90
7576;DHT22;3829;50.798;4.358;2024-02-15T00:40:10;13.50;99.90
7576;DHT22;3829;50.798;4.358;2024-02-15T00:42:36;13.40;99.90
7576;DHT22;3829;50.798;4.358;2024-02-15T00:45:03;13.40;99.90
7576;DHT22;3829;50.798;4.358;2024-02-15T00:47:30;13.40;99.90
7576;DHT22;3829;50.798;4.358;2024-02-15T00:49:55;13.40;99.90
7576;DHT22;3829;50.798;4.358;2024-02-15T00:52:21;13.30;99.90
7576;DHT22;3829;50.798;4.358;2024-02-15T00:54:47;13.40;99.90
7576;DHT22;3829;50.798;4.358;2024-02-15T00:57:12;13.30;99.90
7576;DHT22;3829;50.798;4.358;2024-02-15T00:59:38;13.30;99.90
7576;DHT22;3829;50.798;4.358;2024-02-15T01:02:03;13.20;99.90
7576;DHT22;3829;50.798;4.358;2024-02-15T01:04:30;13.20;99.90
7576;DHT22;3829;50.798;4.358;2024-02-15T01:06:57;13.10;99.90
7576;DHT22;3829;50.798;4.358;2024-02-15T01:09:23;13.10;99.90
7576;DHT22;3829;50.798;4.358;2024-02-15T01:11:48;13.00;99.90
7576;DHT22;3829;50.798;4.358;2024-02-15T01:14:14;13.10;99.90
7576;DHT22;3829;50.798;4.358;2024-02-15T01:16:41;13.10;99.90
7576;DHT22;3829;50.798;4.358;2024-02-15T01:19:06;13.20;99.90
7576;DHT22;3829;50.798;4.358;2024-02-15T01:21:32;13.20;99.90
7576;DHT22;3829;50.798;4.358;2024-02-15T01:23:59;13.40;99.90
7576;DHT22;3829;50.798;4.358;2024-02-15T01:26:26;13.40;99.90
7576;DHT22;3829;50.798;4.358;2024-02-15T01:28:52;13.50;99.90
7576;DHT22;3829;50.798;4.358;2024-02-15T01:31:18;13.50;99.90
7576;DHT22;3829;50.798;4.358;2024-02-15T01:33:44;13.50;99.90
7576;DHT22;3829;50.798;4.358;2024-02-15T01:36:14;13.50;99.90
7576;DHT22;3829;50.798;4.358;2024-02-15T01:38:41;13.40;99.90
7576;DHT22;3829;50.798;4.358;2024-02-15T01:41:07;13.40;99.90
7576;DHT22;3829;50.798;4.358;2024-02-15T01:43:33;13.30;99.90
7576;DHT22;3829;50.798;4.358;2024-02-15T01:45:59;13.30;99.90
7576;DHT22;3829;50.798;4.358;2024-02-15T01:48:30;13.20;99.90
7576;DHT22;3829;50.798;4.358;2024-02-15T01:50:56;13.10;99.90
7576;DHT22;3829;50.798;4.358;2024-02-15T01:53:23;13.10;99.90
7576;DHT22;3829;50.798;4.358;2024-02-15T01:55:49;13.00;99.90
7576;DHT22;3829;50.798;4.358;2024-02-15T01:58:15;13.00;99.90
7576;DHT22;3829;50.798;4.358;2024-02-15T02:00:41;13.10;99.90
7576;DHT22;3829;50.798;4.358;2024-02-15T02:03:08;13.00;99.90
7576;DHT22;3829;50.798;4.358;2024-02-15T02:05:35;13.00;99.90
7576;DHT22;3829;50.798;4.358;2024-02-15T02:08:03;13.10;99.90
7576;DHT22;3829;50.798;4.358;2024-02-15T02:10:36;13.10;99.90
7576;DHT22;3829;50.798;4.358;2024-02-15T02:13:02;13.20;99.90
7576;DHT22;3829;50.798;4.358;2024-02-15T02:15:28;13.10;99.90
7576;DHT22;3829;50.798;4.358;2024-02-15T02:17:54;13.20;99.90
7576;DHT22;3829;50.798;4.358;2024-02-15T02:20:19;13.10;99.90
7576;DHT22;3829;50.798;4.358;2024-02-15T02:22:48;13.10;99.90
7576;DHT22;3829;50.798;4.358;2024-02-15T02:25:16;13.00;99.90
7576;DHT22;3829;50.798;4.358;2024-02-15T02:27:42;13.00;99.90
7576;DHT22;3829;50.798;4.358;2024-02-15T02:30:16;13.00;99.90
7576;DHT22;3829;50.798;4.358;2024-02-15T02:32:45;13.00;99.90
7576;DHT22;3829;50.798;4.358;2024-02-15T02:35:11;13.00;99.90
7576;DHT22;3829;50.798;4.358;2024-02-15T02:37:39;13.00;99.90
7576;DHT22;3829;50.798;4.358;2024-02-15T02:40:06;13.00;99.90
7576;DHT22;3829;50.798;4.358;2024-02-15T02:42:48;13.10;99.90
7576;DHT22;3829;50.798;4.358;2024-02-15T02:45:13;13.00;99.90
7576;DHT22;3829;50.798;4.358;2024-02-15T02:47:39;13.10;99.90
7576;DHT22;3829;50.798;4.358;2024-02-15T02:50:05;13.10;99.90
7576;DHT22;3829;50.798;4.358;2024-02-15T02:52:31;13.20;99.90
7576;DHT22;3829;50.798;4.358;2024-02-15T02:54:56;13.20;99.90
7576;DHT22;3829;50.798;4.358;2024-02-15T02:57:23;13.20;99.90
7576;DHT22;3829;50.798;4.358;2024-02-15T02:59:48;13.20;99.90
7576;DHT22;3829;50.798;4.358;2024-02-15T03:02:14;13.20;99.90
7576;DHT22;3829;50.798;4.358;2024-02-15T03:04:39;13.10;99.90
7576;DHT22;3829;50.798;4.358;2024-02-15T03:07:06;13.10;99.90
7576;DHT22;3829;50.798;4.358;2024-02-15T03:09:32;13.10;99.90
7576;DHT22;3829;50.798;4.358;2024-02-15T03:11:59;13.00;99.90
7576;DHT22;3829;50.798;4.358;2024-02-15T03:14:26;13.00;99.90
7576;DHT22;3829;50.798;4.358;2024-02-15T03:16:52;12.90;99.90
7576;DHT22;3829;50.798;4.358;2024-02-15T03:19:17;12.90;99.90
7576;DHT22;3829;50.798;4.358;2024-02-15T03:21:43;12.90;99.90
7576;DHT22;3829;50.798;4.358;2024-02-15T03:24:12;12.90;99.90
7576;DHT22;3829;50.798;4.358;2024-02-15T03:26:37;12.90;99.90
7576;DHT22;3829;50.798;4.358;2024-02-15T03:29:04;12.90;99.90
7576;DHT22;3829;50.798;4.358;2024-02-15T03:31:30;12.90;99.90
7576;DHT22;3829;50.798;4.358;2024-02-15T03:33:58;12.90;99.90
7576;DHT22;3829;50.798;4.358;2024-02-15T03:36:24;12.90;99.90
7576;DHT22;3829;50.798;4.358;2024-02-15T03:38:50;12.90;99.90
7576;DHT22;3829;50.798;4.358;2024-02-15T03:41:15;12.90;99.90
7576;DHT22;3829;50.798;4.358;2024-02-15T03:43:41;12.90;99.90
7576;DHT22;3829;50.798;4.358;2024-02-15T03:46:06;12.90;99.90
7576;DHT22;3829;50.798;4.358;2024-02-15T03:48:34;12.90;99.90
7576;DHT22;3829;50.798;4.358;2024-02-15T03:50:59;12.90;99.90
7576;DHT22;3829;50.798;4.358;2024-02-15T03:53:27;13.00;99.90
7576;DHT22;3829;50.798;4.358;2024-02-15T03:55:55;13.00;99.90
7576;DHT22;3829;50.798;4.358;2024-02-15T03:58:21;13.00;99.90
7576;DHT22;3829;50.798;4.358;2024-02-15T04:00:47;13.00;99.90
7576;DHT22;3829;50.798;4.358;2024-02-15T04:03:12;13.00;99.90
7576;DHT22;3829;50.798;4.358;2024-02-15T04:05:38;13.00;99.90
7576;DHT22;3829;50.798;4.358;2024-02-15T04:08:05;13.00;99.90
7576;DHT22;3829;50.798;4.358;2024-02-15T04:10:31;13.00;99.90
7576;DHT22;3829;50.798;4.358;2024-02-15T04:12:57;13.00;99.90
7576;DHT22;3829;50.798;4.358;2024-02-15T04:15:23;13.00;99.90
7576;DHT22;3829;50.798;4.358;2024-02-15T04:17:49;13.10;99.90
7576;DHT22;3829;50.798;4.358;2024-02-15T04:20:21;13.10;99.90
7576;DHT22;3829;50.798;4.358;2024-02-15T04:22:47;13.00;99.90
7576;DHT22;3829;50.798;4.358;2024-02-15T04:25:15;13.00;99.90
7576;DHT22;3829;50.798;4.358;2024-02-15T04:27:44;12.90;99.90
7576;DHT22;3829;50.798;4.358;2024-02-15T04:30:11;12.80;99.90
7576;DHT22;3829;50.798;4.358;2024-02-15T04:32:37;12.80;99.90
7576;DHT22;3829;50.798;4.358;2024-02-15T04:35:03;12.80;99.90
7576;DHT22;3829;50.798;4.358;2024-02-15T04:37:29;12.80;99.90
7576;DHT22;3829;50.798;4.358;2024-02-15T04:39:58;12.80;99.90
7576;DHT22;3829;50.798;4.358;2024-02-15T04:42:24;12.70;99.90
7576;DHT22;3829;50.798;4.358;2024-02-15T04:44:52;12.70;99.90
7576;DHT22;3829;50.798;4.358;2024-02-15T04:47:19;12.70;99.90
7576;DHT22;3829;50.798;4.358;2024-02-15T04:49:45;12.80;99.90
7576;DHT22;3829;50.798;4.358;2024-02-15T04:52:11;12.70;99.90
7576;DHT22;3829;50.798;4.358;2024-02-15T04:54:37;12.80;99.90
7576;DHT22;3829;50.798;4.358;2024-02-15T04:57:03;12.80;99.90
7576;DHT22;3829;50.798;4.358;2024-02-15T04:59:28;12.80;99.90
7576;DHT22;3829;50.798;4.358;2024-02-15T05:01:54;12.90;99.90
7576;DHT22;3829;50.798;4.358;2024-02-15T05:04:22;12.90;99.90
7576;DHT22;3829;50.798;4.358;2024-02-15T05:06:48;13.00;99.90
7576;DHT22;3829;50.798;4.358;2024-02-15T05:09:13;13.00;99.90
7576;DHT22;3829;50.798;4.358;2024-02-15T05:11:40;13.00;99.90
7576;DHT22;3829;50.798;4.358;2024-02-15T05:14:09;12.90;99.90
7576;DHT22;3829;50.798;4.358;2024-02-15T05:16:36;12.90;99.90
7576;DHT22;3829;50.798;4.358;2024-02-15T05:19:08;12.80;99.90
7576;DHT22;3829;50.798;4.358;2024-02-15T05:21:34;12.80;99.90
7576;DHT22;3829;50.798;4.358;2024-02-15T05:24:00;12.80;99.90
7576;DHT22;3829;50.798;4.358;2024-02-15T05:26:25;12.80;99.90
7576;DHT22;3829;50.798;4.358;2024-02-15T05:28:51;12.80;99.90
7576;DHT22;3829;50.798;4.358;2024-02-15T05:31:19;12.80;99.90
7576;DHT22;3829;50.798;4.358;2024-02-15T05:33:46;12.90;99.90
7576;DHT22;3829;50.798;4.358;2024-02-15T05:36:14;12.90;99.90
7576;DHT22;3829;50.798;4.358;2024-02-15T05:38:40;12.80;99.90
7576;DHT22;3829;50.798;4.358;2024-02-15T05:41:06;12.90;99.90
7576;DHT22;3829;50.798;4.358;2024-02-15T05:43:34;12.90;99.90
7576;DHT22;3829;50.798;4.358;2024-02-15T05:46:03;13.00;99.90
7576;DHT22;3829;50.798;4.358;2024-02-15T05:48:28;13.00;99.90
7576;DHT22;3829;50.798;4.358;2024-02-15T05:50:55;13.00;99.90
7576;DHT22;3829;50.798;4.358;2024-02-15T05:53:22;13.10;99.90
7576;DHT22;3829;50.798;4.358;2024-02-15T05:55:48;13.10;99.90
7576;DHT22;3829;50.798;4.358;2024-02-15T05:58:15;13.10;99.90
7576;DHT22;3829;50.798;4.358;2024-02-15T06:00:41;13.10;99.90
7576;DHT22;3829;50.798;4.358;2024-02-15T06:03:06;13.10;99.90
7576;DHT22;3829;50.798;4.358;2024-02-15T06:05:34;13.20;99.90
7576;DHT22;3829;50.798;4.358;2024-02-15T06:08:00;13.10;99.90
7576;DHT22;3829;50.798;4.358;2024-02-15T06:10:26;13.20;99.90
7576;DHT22;3829;50.798;4.358;2024-02-15T06:12:52;13.10;99.90
7576;DHT22;3829;50.798;4.358;2024-02-15T06:15:17;13.20;99.90
7576;DHT22;3829;50.798;4.358;2024-02-15T06:17:44;13.20;99.90
7576;DHT22;3829;50.798;4.358;2024-02-15T06:20:12;13.20;99.90
7576;DHT22;3829;50.798;4.358;2024-02-15T06:22:38;13.20;99.90
7576;DHT22;3829;50.798;4.358;2024-02-15T06:25:05;13.20;99.90
7576;DHT22;3829;50.798;4.358;2024-02-15T06:27:31;13.30;99.90
7576;DHT22;3829;50.798;4.358;2024-02-15T06:29:57;13.30;99.90
7576;DHT22;3829;50.798;4.358;2024-02-15T06:32:43;13.30;99.90
7576;DHT22;3829;50.798;4.358;2024-02-15T06:35:18;13.30;99.90
7576;DHT22;3829;50.798;4.358;2024-02-15T06:37:54;13.30;99.90
7576;DHT22;3829;50.798;4.358;2024-02-15T06:40:29;13.30;99.90
7576;DHT22;3829;50.798;4.358;2024-02-15T06:42:56;13.30;99.90
7576;DHT22;3829;50.798;4.358;2024-02-15T06:45:21;13.30;99.90
7576;DHT22;3829;50.798;4.358;2024-02-15T06:47:48;13.30;99.90
7576;DHT22;3829;50.798;4.358;2024-02-15T06:50:14;13.30;99.90
7576;DHT22;3829;50.798;4.358;2024-02-15T06:52:40;13.20;99.90
7576;DHT22;3829;50.798;4.358;2024-02-15T06:55:07;13.10;99.90
7576;DHT22;3829;50.798;4.358;2024-02-15T06:57:34;13.20;99.90
7576;DHT22;3829;50.798;4.358;2024-02-15T07:00:03;13.20;99.90
7576;DHT22;3829;50.798;4.358;2024-02-15T07:02:33;13.20;99.90
7576;DHT22;3829;50.798;4.358;2024-02-15T07:04:58;13.20;99.90
7576;DHT22;3829;50.798;4.358;2024-02-15T07:07:24;13.20;99.90
7576;DHT22;3829;50.798;4.358;2024-02-15T07:09:49;13.30;99.90
7576;DHT22;3829;50.798;4.358;2024-02-15T07:12:15;13.30;99.90
7576;DHT22;3829;50.798;4.358;2024-02-15T07:14:40;13.40;99.90
7576;DHT22;3829;50.798;4.358;2024-02-15T07:17:06;13.40;99.90
7576;DHT22;3829;50.798;4.358;2024-02-15T07:19:32;13.40;99.90
7576;DHT22;3829;50.798;4.358;2024-02-15T07:22:02;13.50;99.90
7576;DHT22;3829;50.798;4.358;2024-02-15T07:24:27;13.50;99.90
7576;DHT22;3829;50.798;4.358;2024-02-15T07:26:53;13.50;99.90
7576;DHT22;3829;50.798;4.358;2024-02-15T07:29:21;13.50;99.90
7576;DHT22;3829;50.798;4.358;2024-02-15T07:31:49;13.60;99.90
7576;DHT22;3829;50.798;4.358;2024-02-15T07:34:15;13.50;99.90
7576;DHT22;3829;50.798;4.358;2024-02-15T07:36:42;13.60;99.90
7576;DHT22;3829;50.798;4.358;2024-02-15T07:39:08;13.60;99.90
7576;DHT22;3829;50.798;4.358;2024-02-15T07:41:38;13.70;99.90
7576;DHT22;3829;50.798;4.358;2024-02-15T07:44:04;13.70;99.90
7576;DHT22;3829;50.798;4.358;2024-02-15T07:46:29;13.80;99.90
7576;DHT22;3829;50.798;4.358;2024-02-15T07:48:55;13.80;99.90
7576;DHT22;3829;50.798;4.358;2024-02-15T07:51:22;13.90;99.90
7576;DHT22;3829;50.798;4.358;2024-02-15T07:53:48;13.90;99.90
7576;DHT22;3829;50.798;4.358;2024-02-15T07:56:15;14.00;99.90
7576;DHT22;3829;50.798;4.358;2024-02-15T07:58:42;14.00;99.90
7576;DHT22;3829;50.798;4.358;2024-02-15T08:01:10;13.80;99.90
7576;DHT22;3829;50.798;4.358;2024-02-15T08:03:36;14.00;99.90
7576;DHT22;3829;50.798;4.358;2024-02-15T08:06:02;14.10;99.90
7576;DHT22;3829;50.798;4.358;2024-02-15T08:08:35;14.00;99.90
7576;DHT22;3829;50.798;4.358;2024-02-15T08:11:02;14.00;99.90
7576;DHT22;3829;50.798;4.358;2024-02-15T08:13:28;14.20;99.90
7576;DHT22;3829;50.798;4.358;2024-02-15T08:15:55;14.20;99.90
7576;DHT22;3829;50.798;4.358;2024-02-15T08:18:21;14.20;99.90
7576;DHT22;3829;50.798;4.358;2024-02-15T08:20:46;14.20;99.90
7576;DHT22;3829;50.798;4.358;2024-02-15T08:23:12;14.40;99.90
7576;DHT22;3829;50.798;4.358;2024-02-15T08:25:39;14.40;99.90
7576;DHT22;3829;50.798;4.358;2024-02-15T08:28:06;14.50;99.90
7576;DHT22;3829;50.798;4.358;2024-02-15T08:30:33;14.60;99.90
7576;DHT22;3829;50.798;4.358;2024-02-15T08:32:58;14.70;99.90
7576;DHT22;3829;50.798;4.358;2024-02-15T08:35:24;14.80;99.90
7576;DHT22;3829;50.798;4.358;2024-02-15T08:37:49;14.80;99.90
7576;DHT22;3829;50.798;4.358;2024-02-15T08:40:17;14.80;99.90
7576;DHT22;3829;50.798;4.358;2024-02-15T08:42:45;14.90;99.90
7576;DHT22;3829;50.798;4.358;2024-02-15T08:45:11;14.90;99.90
7576;DHT22;3829;50.798;4.358;2024-02-15T08:47:42;15.10;99.90
7576;DHT22;3829;50.798;4.358;2024-02-15T08:50:09;15.30;99.90
7576;DHT22;3829;50.798;4.358;2024-02-15T08:52:36;15.50;99.90
7576;DHT22;3829;50.798;4.358;2024-02-15T08:55:07;15.60;99.90
7576;DHT22;3829;50.798;4.358;2024-02-15T08:57:35;15.70;99.90
7576;DHT22;3829;50.798;4.358;2024-02-15T09:00:04;15.80;99.90
7576;DHT22;3829;50.798;4.358;2024-02-15T09:02:34;15.70;99.90
7576;DHT22;3829;50.798;4.358;2024-02-15T09:05:00;15.70;99.90
7576;DHT22;3829;50.798;4.358;2024-02-15T09:07:26;15.70;99.90
7576;DHT22;3829;50.798;4.358;2024-02-15T09:09:51;15.80;99.90
7576;DHT22;3829;50.798;4.358;2024-02-15T09:12:17;16.00;99.90
7576;DHT22;3829;50.798;4.358;2024-02-15T09:14:42;16.10;99.90
7576;DHT22;3829;50.798;4.358;2024-02-15T09:17:08;16.10;99.90
7576;DHT22;3829;50.798;4.358;2024-02-15T09:19:34;16.20;99.90
7576;DHT22;3829;50.798;4.358;2024-02-15T09:22:01;16.20;99.90
7576;DHT22;3829;50.798;4.358;2024-02-15T09:24:26;16.10;99.90
7576;DHT22;3829;50.798;4.358;2024-02-15T09:26:52;16.20;99.90
7576;DHT22;3829;50.798;4.358;2024-02-15T09:29:19;16.30;99.90
7576;DHT22;3829;50.798;4.358;2024-02-15T09:31:47;16.30;99.90
7576;DHT22;3829;50.798;4.358;2024-02-15T09:34:13;16.40;99.90
7576;DHT22;3829;50.798;4.358;2024-02-15T09:36:39;16.20;99.90
7576;DHT22;3829;50.798;4.358;2024-02-15T09:39:04;16.30;99.90
7576;DHT22;3829;50.798;4.358;2024-02-15T09:41:31;16.40;99.90
7576;DHT22;3829;50.798;4.358;2024-02-15T09:43:57;16.60;99.90
7576;DHT22;3829;50.798;4.358;2024-02-15T09:46:23;16.80;99.90
7576;DHT22;3829;50.798;4.358;2024-02-15T09:48:50;16.80;99.90
7576;DHT22;3829;50.798;4.358;2024-02-15T09:51:18;16.90;99.90
7576;DHT22;3829;50.798;4.358;2024-02-15T09:53:47;17.10;99.90
7576;DHT22;3829;50.798;4.358;2024-02-15T09:56:13;17.10;99.90
7576;DHT22;3829;50.798;4.358;2024-02-15T09:58:40;17.00;99.90
7576;DHT22;3829;50.798;4.358;2024-02-15T10:01:06;16.80;99.90
7576;DHT22;3829;50.798;4.358;2024-02-15T10:03:37;16.90;99.90
7576;DHT22;3829;50.798;4.358;2024-02-15T10:06:06;17.00;99.90
7576;DHT22;3829;50.798;4.358;2024-02-15T10:08:31;17.00;99.90
7576;DHT22;3829;50.798;4.358;2024-02-15T10:11:07;17.10;99.90
7576;DHT22;3829;50.798;4.358;2024-02-15T10:13:34;17.10;99.90
7576;DHT22;3829;50.798;4.358;2024-02-15T10:16:14;17.00;99.90
7576;DHT22;3829;50.798;4.358;2024-02-15T10:18:39;17.10;99.90
7576;DHT22;3829;50.798;4.358;2024-02-15T10:21:05;17.10;99.90
7576;DHT22;3829;50.798;4.358;2024-02-15T10:23:30;17.10;99.90
7576;DHT22;3829;50.798;4.358;2024-02-15T10:25:56;17.20;99.90
7576;DHT22;3829;50.798;4.358;2024-02-15T10:28:23;17.30;99.90
7576;DHT22;3829;50.798;4.358;2024-02-15T10:30:50;17.30;99.90
7576;DHT22;3829;50.798;4.358;2024-02-15T10:33:21;17.30;99.90
7576;DHT22;3829;50.798;4.358;2024-02-15T10:36:06;17.30;99.90
7576;DHT22;3829;50.798;4.358;2024-02-15T10:38:33;17.40;99.90
7576;DHT22;3829;50.798;4.358;2024-02-15T10:41:07;17.40;99.90
7576;DHT22;3829;50.798;4.358;2024-02-15T10:43:33;17.40;99.90
7576;DHT22;3829;50.798;4.358;2024-02-15T10:46:00;17.60;99.90
7576;DHT22;3829;50.798;4.358;2024-02-15T10:48:26;17.60;99.90
7576;DHT22;3829;50.798;4.358;2024-02-15T10:50:56;17.50;99.90
7576;DHT22;3829;50.798;4.358;2024-02-15T10:53:26;17.60;99.90
7576;DHT22;3829;50.798;4.358;2024-02-15T10:56:08;17.50;99.90
7576;DHT22;3829;50.798;4.358;2024-02-15T10:58:45;17.60;99.90
7576;DHT22;3829;50.798;4.358;2024-02-15T11:01:17;17.50;99.90
7576;DHT22;3829;50.798;4.358;2024-02-15T11:03:51;17.40;99.90
7576;DHT22;3829;50.798;4.358;2024-02-15T11:06:20;17.40;99.90
7576;DHT22;3829;50.798;4.358;2024-02-15T11:08:48;17.50;99.90
7576;DHT22;3829;50.798;4.358;2024-02-15T11:11:14;17.50;99.90
7576;DHT22;3829;50.798;4.358;2024-02-15T11:13:40;17.40;99.90
7576;DHT22;3829;50.798;4.358;2024-02-15T11:16:07;17.20;99.90
7576;DHT22;3829;50.798;4.358;2024-02-15T11:18:44;17.30;99.90
7576;DHT22;3829;50.798;4.358;2024-02-15T11:21:11;17.50;99.90
7576;DHT22;3829;50.798;4.358;2024-02-15T11:23:37;17.60;99.90
7576;DHT22;3829;50.798;4.358;2024-02-15T11:26:03;17.40;99.90
7576;DHT22;3829;50.798;4.358;2024-02-15T11:28:36;17.30;99.90
7576;DHT22;3829;50.798;4.358;2024-02-15T11:31:06;17.40;99.90
7576;DHT22;3829;50.798;4.358;2024-02-15T11:33:33;17.50;99.90
7576;DHT22;3829;50.798;4.358;2024-02-15T11:36:04;17.60;99.90
7576;DHT22;3829;50.798;4.358;2024-02-15T11:38:30;17.50;99.90
7576;DHT22;3829;50.798;4.358;2024-02-15T11:41:03;17.70;99.90
7576;DHT22;3829;50.798;4.358;2024-02-15T11:43:44;17.60;99.90
7576;DHT22;3829;50.798;4.358;2024-02-15T11:46:16;17.60;99.90
7576;DHT22;3829;50.798;4.358;2024-02-15T11:48:47;17.50;99.90
7576;DHT22;3829;50.798;4.358;2024-02-15T11:51:26;17.30;99.90
7576;DHT22;3829;50.798;4.358;2024-02-15T11:54:03;17.40;99.90
7576;DHT22;3829;50.798;4.358;2024-02-15T11:56:50;17.40;99.90
7576;DHT22;3829;50.798;4.358;2024-02-15T11:59:19;17.30;99.90
7576;DHT22;3829;50.798;4.358;2024-02-15T12:01:56;17.40;99.90
7576;DHT22;3829;50.798;4.358;2024-02-15T12:04:32;17.30;99.90
7576;DHT22;3829;50.798;4.358;2024-02-15T12:07:07;17.40;99.90
7576;DHT22;3829;50.798;4.358;2024-02-15T12:09:43;17.20;99.90
7576;DHT22;3829;50.798;4.358;2024-02-15T12:12:19;17.20;99.90
7576;DHT22;3829;50.798;4.358;2024-02-15T12:15:02;17.20;99.90
7576;DHT22;3829;50.798;4.358;2024-02-15T12:17:38;17.30;99.90
7576;DHT22;3829;50.798;4.358;2024-02-15T12:20:13;17.40;99.90
7576;DHT22;3829;50.798;4.358;2024-02-15T12:22:43;17.30;99.90
7576;DHT22;3829;50.798;4.358;2024-02-15T12:25:15;17.30;99.90
7576;DHT22;3829;50.798;4.358;2024-02-15T12:27:42;17.40;99.90
7576;DHT22;3829;50.798;4.358;2024-02-15T12:30:17;17.40;99.90
7576;DHT22;3829;50.798;4.358;2024-02-15T12:32:47;17.40;99.90
7576;DHT22;3829;50.798;4.358;2024-02-15T12:35:15;17.50;99.90
7576;DHT22;3829;50.798;4.358;2024-02-15T12:37:43;17.60;99.90
7576;DHT22;3829;50.798;4.358;2024-02-15T12:40:11;17.90;99.90
7576;DHT22;3829;50.798;4.358;2024-02-15T12:42:41;18.10;99.90
7576;DHT22;3829;50.798;4.358;2024-02-15T12:45:18;18.20;99.90
7576;DHT22;3829;50.798;4.358;2024-02-15T12:47:49;18.20;99.90
7576;DHT22;3829;50.798;4.358;2024-02-15T12:50:17;18.10;99.90
7576;DHT22;3829;50.798;4.358;2024-02-15T12:52:45;18.10;99.90
7576;DHT22;3829;50.798;4.358;2024-02-15T12:55:16;18.10;99.90
7576;DHT22;3829;50.798;4.358;2024-02-15T12:57:43;18.30;99.90
7576;DHT22;3829;50.798;4.358;2024-02-15T13:00:10;18.30;99.90
7576;DHT22;3829;50.798;4.358;2024-02-15T13:02:39;18.30;99.90
7576;DHT22;3829;50.798;4.358;2024-02-15T13:05:05;17.90;99.90
7576;DHT22;3829;50.798;4.358;2024-02-15T13:07:36;17.60;99.90
7576;DHT22;3829;50.798;4.358;2024-02-15T13:10:02;17.50;99.90
7576;DHT22;3829;50.798;4.358;2024-02-15T13:12:29;17.50;99.90
7576;DHT22;3829;50.798;4.358;2024-02-15T13:14:54;17.80;99.90
7576;DHT22;3829;50.798;4.358;2024-02-15T13:17:20;18.00;99.90
7576;DHT22;3829;50.798;4.358;2024-02-15T13:19:47;18.10;99.90
7576;DHT22;3829;50.798;4.358;2024-02-15T13:22:14;18.10;99.90
7576;DHT22;3829;50.798;4.358;2024-02-15T13:24:42;18.20;99.90
7576;DHT22;3829;50.798;4.358;2024-02-15T13:27:07;18.20;99.90
7576;DHT22;3829;50.798;4.358;2024-02-15T13:29:38;18.30;99.90
7576;DHT22;3829;50.798;4.358;2024-02-15T13:32:05;18.40;99.90
7576;DHT22;3829;50.798;4.358;2024-02-15T13:34:31;18.20;99.90
7576;DHT22;3829;50.798;4.358;2024-02-15T13:36:58;18.30;99.90
7576;DHT22;3829;50.798;4.358;2024-02-15T13:39:27;18.30;99.90
7576;DHT22;3829;50.798;4.358;2024-02-15T13:42:01;18.40;99.90
7576;DHT22;3829;50.798;4.358;2024-02-15T13:44:27;18.50;99.90
7576;DHT22;3829;50.798;4.358;2024-02-15T13:46:52;18.60;99.90
7576;DHT22;3829;50.798;4.358;2024-02-15T13:49:21;18.50;99.90
7576;DHT22;3829;50.798;4.358;2024-02-15T13:51:47;18.40;99.90
7576;DHT22;3829;50.798;4.358;2024-02-15T13:54:12;18.10;99.90
7576;DHT22;3829;50.798;4.358;2024-02-15T13:56:38;17.90;99.90
7576;DHT22;3829;50.798;4.358;2024-02-15T13:59:05;17.90;99.90
7576;DHT22;3829;50.798;4.358;2024-02-15T14:01:31;17.90;99.90
7576;DHT22;3829;50.798;4.358;2024-02-15T14:03:56;17.80;99.90
7576;DHT22;3829;50.798;4.358;2024-02-15T14:06:22;17.80;99.90
7576;DHT22;3829;50.798;4.358;2024-02-15T14:08:49;17.90;99.90
7576;DHT22;3829;50.798;4.358;2024-02-15T14:11:16;17.70;99.90
7576;DHT22;3829;50.798;4.358;2024-02-15T14:13:42;17.60;99.90
7576;DHT22;3829;50.798;4.358;2024-02-15T14:16:08;17.60;99.90
7576;DHT22;3829;50.798;4.358;2024-02-15T14:18:34;17.70;99.90
7576;DHT22;3829;50.798;4.358;2024-02-15T14:21:00;17.90;99.90
7576;DHT22;3829;50.798;4.358;2024-02-15T14:23:26;17.70;99.90
7576;DHT22;3829;50.798;4.358;2024-02-15T14:25:53;17.60;99.90
7576;DHT22;3829;50.798;4.358;2024-02-15T14:28:18;17.50;99.90
7576;DHT22;3829;50.798;4.358;2024-02-15T14:30:44;17.50;99.90
7576;DHT22;3829;50.798;4.358;2024-02-15T14:33:19;17.50;99.90
7576;DHT22;3829;50.798;4.358;2024-02-15T14:35:48;17.50;99.90
7576;DHT22;3829;50.798;4.358;2024-02-15T14:38:14;17.60;99.90
7576;DHT22;3829;50.798;4.358;2024-02-15T14:40:44;17.60;99.90
7576;DHT22;3829;50.798;4.358;2024-02-15T14:43:11;17.70;99.90
7576;DHT22;3829;50.798;4.358;2024-02-15T14:45:38;17.80;99.90
7576;DHT22;3829;50.798;4.358;2024-02-15T14:48:06;17.90;99.90
7576;DHT22;3829;50.798;4.358;2024-02-15T14:50:36;17.90;99.90
7576;DHT22;3829;50.798;4.358;2024-02-15T14:53:02;17.80;99.90
7576;DHT22;3829;50.798;4.358;2024-02-15T14:55:27;17.80;99.90
7576;DHT22;3829;50.798;4.358;2024-02-15T14:57:57;17.80;99.90
7576;DHT22;3829;50.798;4.358;2024-02-15T15:00:23;17.80;99.90
7576;DHT22;3829;50.798;4.358;2024-02-15T15:02:50;17.80;99.90
7576;DHT22;3829;50.798;4.358;2024-02-15T15:05:16;17.80;99.90
7576;DHT22;3829;50.798;4.358;2024-02-15T15:07:51;17.70;99.90
7576;DHT22;3829;50.798;4.358;2024-02-15T15:10:27;17.50;99.90
7576;DHT22;3829;50.798;4.358;2024-02-15T15:13:03;17.50;99.90
7576;DHT22;3829;50.798;4.358;2024-02-15T15:15:28;17.40;99.90
7576;DHT22;3829;50.798;4.358;2024-02-15T15:17:54;17.40;99.90
7576;DHT22;3829;50.798;4.358;2024-02-15T15:20:21;17.30;99.90
7576;DHT22;3829;50.798;4.358;2024-02-15T15:22:46;17.30;99.90
7576;DHT22;3829;50.798;4.358;2024-02-15T15:25:12;17.30;99.90
7576;DHT22;3829;50.798;4.358;2024-02-15T15:27:38;17.20;99.90
7576;DHT22;3829;50.798;4.358;2024-02-15T15:30:05;17.20;99.90
7576;DHT22;3829;50.798;4.358;2024-02-15T15:32:31;17.10;99.90
7576;DHT22;3829;50.798;4.358;2024-02-15T15:34:56;17.10;99.90
7576;DHT22;3829;50.798;4.358;2024-02-15T15:37:22;17.10;99.90
7576;DHT22;3829;50.798;4.358;2024-02-15T15:39:48;17.10;99.90
7576;DHT22;3829;50.798;4.358;2024-02-15T15:42:15;17.10;99.90
7576;DHT22;3829;50.798;4.358;2024-02-15T15:44:41;17.00;99.90
7576;DHT22;3829;50.798;4.358;2024-02-15T15:47:06;17.10;99.90
7576;DHT22;3829;50.798;4.358;2024-02-15T15:49:32;16.90;99.90
7576;DHT22;3829;50.798;4.358;2024-02-15T15:51:57;16.80;99.90
7576;DHT22;3829;50.798;4.358;2024-02-15T15:54:23;16.70;99.90
7576;DHT22;3829;50.798;4.358;2024-02-15T15:56:48;16.80;99.90
7576;DHT22;3829;50.798;4.358;2024-02-15T15:59:14;16.60;99.90
7576;DHT22;3829;50.798;4.358;2024-02-15T16:01:47;16.50;99.90
7576;DHT22;3829;50.798;4.358;2024-02-15T16:04:13;16.40;99.90